createdAt,value
2023-04-15T00:00:52.622Z,1026.65
2023-04-15T00:01:52.724Z,1026.61
2023-04-15T00:02:52.750Z,1026.67
2023-04-15T00:03:52.815Z,1026.65
2023-04-15T00:04:52.724Z,1026.64
2023-04-15T00:05:52.694Z,1026.66
2023-04-15T00:06:52.638Z,1026.67
2023-04-15T00:07:52.637Z,1026.67
2023-04-15T00:08:52.632Z,1026.72
2023-04-15T00:09:52.640Z,1026.70
2023-04-15T00:10:52.642Z,1026.69
2023-04-15T00:11:52.653Z,1026.68
2023-04-15T00:12:52.650Z,1026.67
2023-04-15T00:13:52.645Z,1026.67
2023-04-15T00:14:52.669Z,1026.69
2023-04-15T00:15:52.667Z,1026.67
2023-04-15T00:16:52.750Z,1026.66
2023-04-15T00:17:52.695Z,1026.69
2023-04-15T00:18:52.655Z,1026.67
2023-04-15T00:19:52.656Z,1026.66
2023-04-15T00:20:52.745Z,1026.65
2023-04-15T00:21:52.660Z,1026.67
2023-04-15T00:22:52.662Z,1026.69
2023-04-15T00:23:52.731Z,1026.65
2023-04-15T00:24:52.665Z,1026.63
2023-04-15T00:25:52.720Z,1026.70
2023-04-15T00:26:52.662Z,1026.68
2023-04-15T00:27:52.693Z,1026.67
2023-04-15T00:28:52.668Z,1026.71
2023-04-15T00:29:52.675Z,1026.72
2023-04-15T00:30:52.790Z,1026.69
2023-04-15T00:31:52.682Z,1026.72
2023-04-15T00:32:52.803Z,1026.75
2023-04-15T00:33:52.693Z,1026.75
2023-04-15T00:34:52.677Z,1026.79
2023-04-15T00:35:52.692Z,1026.78
2023-04-15T00:36:52.697Z,1026.79
2023-04-15T00:37:52.698Z,1026.76
2023-04-15T00:38:52.693Z,1026.77
2023-04-15T00:39:52.696Z,1026.75
2023-04-15T00:40:52.690Z,1026.78
2023-04-15T00:41:52.699Z,1026.80
2023-04-15T00:42:52.692Z,1026.85
2023-04-15T00:43:52.698Z,1026.82
2023-04-15T00:44:52.701Z,1026.80
2023-04-15T00:45:52.743Z,1026.81
2023-04-15T00:46:52.733Z,1026.79
2023-04-15T00:47:52.866Z,1026.81
2023-04-15T00:48:52.714Z,1026.79
2023-04-15T00:49:52.706Z,1026.79
2023-04-15T00:50:52.713Z,1026.77
2023-04-15T00:51:52.723Z,1026.87
2023-04-15T00:52:52.715Z,1026.81
2023-04-15T00:53:52.722Z,1026.79
2023-04-15T00:54:52.715Z,1026.78
2023-04-15T00:55:52.785Z,1026.81
2023-04-15T00:56:52.724Z,1026.79
2023-04-15T00:57:52.748Z,1026.79
2023-04-15T00:58:52.730Z,1026.77
2023-04-15T00:59:52.744Z,1026.81
2023-04-15T01:00:52.733Z,1026.81
2023-04-15T01:01:52.841Z,1026.81
2023-04-15T01:02:52.894Z,1026.80
2023-04-15T01:03:52.835Z,1026.87
2023-04-15T01:04:52.736Z,1026.82
2023-04-15T01:05:52.755Z,1026.79
2023-04-15T01:06:52.744Z,1026.81
2023-04-15T01:07:52.740Z,1026.84
2023-04-15T01:08:52.744Z,1026.81
2023-04-15T01:09:52.747Z,1026.84
2023-04-15T01:10:52.799Z,1026.79
2023-04-15T01:11:52.750Z,1026.81
2023-04-15T01:12:52.758Z,1026.77
2023-04-15T01:13:52.751Z,1026.78
2023-04-15T01:14:52.755Z,1026.77
2023-04-15T01:15:52.783Z,1026.76
2023-04-15T01:16:52.753Z,1026.77
2023-04-15T01:17:52.870Z,1026.78
2023-04-15T01:18:52.786Z,1026.79
2023-04-15T01:19:52.775Z,1026.76
2023-04-15T01:20:52.768Z,1026.81
2023-04-15T01:21:52.767Z,1026.77
2023-04-15T01:22:52.769Z,1026.75
2023-04-15T01:23:52.767Z,1026.79
2023-04-15T01:24:52.770Z,1026.81
2023-04-15T01:25:52.771Z,1026.81
2023-04-15T01:26:52.776Z,1026.79
2023-04-15T01:27:52.776Z,1026.87
2023-04-15T01:28:52.779Z,1026.88
2023-04-15T01:29:52.781Z,1026.85
2023-04-15T01:30:52.784Z,1026.81
2023-04-15T01:31:52.833Z,1026.79
2023-04-15T01:32:52.805Z,1026.82
2023-04-15T01:33:52.783Z,1026.77
2023-04-15T01:34:52.810Z,1026.83
2023-04-15T01:35:52.786Z,1026.80
2023-04-15T01:36:52.794Z,1026.82
2023-04-15T01:37:52.794Z,1026.85
2023-04-15T01:38:52.815Z,1026.82
2023-04-15T01:39:52.805Z,1026.82
2023-04-15T01:40:52.796Z,1026.84
2023-04-15T01:41:52.802Z,1026.85
2023-04-15T01:42:52.806Z,1026.83
2023-04-15T01:43:52.804Z,1026.90
2023-04-15T01:44:52.812Z,1026.87
2023-04-15T01:45:52.814Z,1026.81
2023-04-15T01:46:52.867Z,1026.86
2023-04-15T01:47:52.952Z,1026.80
2023-04-15T01:48:52.816Z,1026.83
2023-04-15T01:49:52.815Z,1026.82
2023-04-15T01:50:52.845Z,1026.82
2023-04-15T01:51:52.820Z,1026.78
2023-04-15T01:52:52.839Z,1026.80
2023-04-15T01:53:52.824Z,1026.85
2023-04-15T01:54:52.837Z,1026.83
2023-04-15T01:55:52.827Z,1026.83
2023-04-15T01:56:52.833Z,1026.85
2023-04-15T01:57:52.836Z,1026.84
2023-04-15T01:58:52.876Z,1026.84
2023-04-15T01:59:52.841Z,1026.84
2023-04-15T02:00:52.867Z,1026.85
2023-04-15T02:01:52.862Z,1026.87
2023-04-15T02:02:52.932Z,1026.91
2023-04-15T02:03:52.869Z,1026.90
2023-04-15T02:04:52.844Z,1026.90
2023-04-15T02:05:52.844Z,1026.93
2023-04-15T02:06:52.874Z,1026.95
2023-04-15T02:07:52.852Z,1026.92
2023-04-15T02:08:52.858Z,1026.89
2023-04-15T02:09:52.854Z,1026.89
2023-04-15T02:10:52.867Z,1026.95
2023-04-15T02:11:52.857Z,1026.91
2023-04-15T02:12:52.864Z,1026.91
2023-04-15T02:13:52.865Z,1026.90
2023-04-15T02:14:52.863Z,1026.88
2023-04-15T02:15:52.913Z,1026.91
2023-04-15T02:16:53.015Z,1026.89
2023-04-15T02:17:52.905Z,1026.90
2023-04-15T02:18:52.884Z,1026.88
2023-04-15T02:19:52.874Z,1026.92
2023-04-15T02:20:52.877Z,1026.91
2023-04-15T02:21:52.878Z,1026.93
2023-04-15T02:22:52.904Z,1026.88
2023-04-15T02:23:54.036Z,1026.89
2023-04-15T02:24:52.887Z,1026.90
2023-04-15T02:25:54.035Z,1026.91
2023-04-15T02:26:52.888Z,1026.94
2023-04-15T02:27:52.885Z,1026.94
2023-04-15T02:28:52.892Z,1026.91
2023-04-15T02:29:52.890Z,1026.94
2023-04-15T02:30:53.334Z,1026.90
2023-04-15T02:31:52.930Z,1026.93
2023-04-15T02:32:52.933Z,1026.90
2023-04-15T02:33:52.899Z,1026.92
2023-04-15T02:34:52.905Z,1026.95
2023-04-15T02:35:52.907Z,1026.95
2023-04-15T02:36:52.905Z,1026.94
2023-04-15T02:37:52.906Z,1026.95
2023-04-15T02:38:53.040Z,1026.97
2023-04-15T02:39:52.908Z,1026.99
2023-04-15T02:40:52.911Z,1026.98
2023-04-15T02:41:52.908Z,1026.97
2023-04-15T02:42:52.921Z,1026.99
2023-04-15T02:43:52.917Z,1026.98
2023-04-15T02:44:52.919Z,1027.01
2023-04-15T02:45:52.947Z,1026.99
2023-04-15T02:46:52.979Z,1026.98
2023-04-15T02:47:53.090Z,1026.97
2023-04-15T02:48:52.931Z,1026.95
2023-04-15T02:49:52.931Z,1026.99
2023-04-15T02:50:52.951Z,1026.98
2023-04-15T02:51:52.921Z,1027.00
2023-04-15T02:52:52.947Z,1027.00
2023-04-15T02:53:52.962Z,1026.98
2023-04-15T02:54:52.956Z,1026.97
2023-04-15T02:55:52.987Z,1026.92
2023-04-15T02:56:52.934Z,1026.94
2023-04-15T02:57:52.964Z,1026.95
2023-04-15T02:58:52.981Z,1026.94
2023-04-15T02:59:52.988Z,1026.96
2023-04-15T03:00:52.974Z,1026.95
2023-04-15T03:01:53.192Z,1026.94
2023-04-15T03:02:53.165Z,1026.92
2023-04-15T03:03:52.990Z,1026.97
2023-04-15T03:04:53.022Z,1026.96
2023-04-15T03:05:52.991Z,1027.00
2023-04-15T03:06:53.031Z,1026.98
2023-04-15T03:07:53.011Z,1026.96
2023-04-15T03:08:52.957Z,1027.00
2023-04-15T03:09:52.955Z,1027.03
2023-04-15T03:10:53.127Z,1026.99
2023-04-15T03:11:52.958Z,1027.02
2023-04-15T03:12:52.965Z,1027.01
2023-04-15T03:13:52.960Z,1027.07
2023-04-15T03:14:52.963Z,1027.06
2023-04-15T03:15:53.126Z,1027.04
2023-04-15T03:16:52.964Z,1027.09
2023-04-15T03:17:52.998Z,1027.06
2023-04-15T03:18:52.970Z,1027.10
2023-04-15T03:19:52.972Z,1027.16
2023-04-15T03:20:52.973Z,1027.14
2023-04-15T03:21:52.975Z,1027.16
2023-04-15T03:22:52.977Z,1027.15
2023-04-15T03:23:52.975Z,1027.14
2023-04-15T03:24:52.974Z,1027.17
2023-04-15T03:25:52.976Z,1027.19
2023-04-15T03:26:53.005Z,1027.23
2023-04-15T03:27:52.994Z,1027.21
2023-04-15T03:28:52.990Z,1027.25
2023-04-15T03:29:53.289Z,1027.27
2023-04-15T03:30:53.047Z,1027.27
2023-04-15T03:31:52.995Z,1027.29
2023-04-15T03:32:53.044Z,1027.28
2023-04-15T03:33:53.004Z,1027.24
2023-04-15T03:34:53.013Z,1027.21
2023-04-15T03:35:53.296Z,1027.25
2023-04-15T03:36:53.017Z,1027.25
2023-04-15T03:37:52.998Z,1027.26
2023-04-15T03:38:53.007Z,1027.25
2023-04-15T03:39:53.012Z,1027.26
2023-04-15T03:40:53.023Z,1027.26
2023-04-15T03:41:53.026Z,1027.32
2023-04-15T03:42:53.036Z,1027.30
2023-04-15T03:43:53.011Z,1027.29
2023-04-15T03:44:53.015Z,1027.30
2023-04-15T03:45:53.018Z,1027.32
2023-04-15T03:46:53.123Z,1027.30
2023-04-15T03:47:53.043Z,1027.35
2023-04-15T03:48:53.021Z,1027.32
2023-04-15T03:49:53.020Z,1027.32
2023-04-15T03:50:53.022Z,1027.32
2023-04-15T03:51:53.026Z,1027.34
2023-04-15T03:52:53.031Z,1027.35
2023-04-15T03:53:53.030Z,1027.34
2023-04-15T03:54:53.041Z,1027.35
2023-04-15T03:55:53.039Z,1027.33
2023-04-15T03:56:53.037Z,1027.33
2023-04-15T03:57:53.034Z,1027.33
2023-04-15T03:58:53.069Z,1027.33
2023-04-15T03:59:53.034Z,1027.35
2023-04-15T04:00:53.040Z,1027.34
2023-04-15T04:01:53.101Z,1027.32
2023-04-15T04:02:53.261Z,1027.38
2023-04-15T04:03:53.205Z,1027.38
2023-04-15T04:04:53.115Z,1027.38
2023-04-15T04:05:53.049Z,1027.36
2023-04-15T04:06:53.359Z,1027.37
2023-04-15T04:07:53.049Z,1027.40
2023-04-15T04:08:53.063Z,1027.39
2023-04-15T04:09:53.061Z,1027.38
2023-04-15T04:10:53.057Z,1027.42
2023-04-15T04:11:53.059Z,1027.41
2023-04-15T04:12:53.071Z,1027.35
2023-04-15T04:13:53.066Z,1027.39
2023-04-15T04:14:53.188Z,1027.41
2023-04-15T04:15:53.163Z,1027.39
2023-04-15T04:16:53.108Z,1027.33
2023-04-15T04:17:53.117Z,1027.33
2023-04-15T04:18:53.075Z,1027.36
2023-04-15T04:19:53.075Z,1027.36
2023-04-15T04:20:53.079Z,1027.37
2023-04-15T04:21:53.070Z,1027.38
2023-04-15T04:22:53.277Z,1027.35
2023-04-15T04:23:53.086Z,1027.41
2023-04-15T04:24:53.080Z,1027.42
2023-04-15T04:25:53.078Z,1027.39
2023-04-15T04:26:53.082Z,1027.43
2023-04-15T04:27:53.082Z,1027.44
2023-04-15T04:28:53.091Z,1027.45
2023-04-15T04:29:53.090Z,1027.44
2023-04-15T04:30:53.118Z,1027.44
2023-04-15T04:31:53.149Z,1027.43
2023-04-15T04:32:53.172Z,1027.48
2023-04-15T04:33:53.090Z,1027.48
2023-04-15T04:34:53.097Z,1027.47
2023-04-15T04:35:53.089Z,1027.47
2023-04-15T04:36:53.097Z,1027.49
2023-04-15T04:37:53.101Z,1027.50
2023-04-15T04:38:53.152Z,1027.49
2023-04-15T04:39:53.106Z,1027.49
2023-04-15T04:40:53.100Z,1027.48
2023-04-15T04:41:53.107Z,1027.52
2023-04-15T04:42:53.104Z,1027.50
2023-04-15T04:43:53.128Z,1027.50
2023-04-15T04:44:53.114Z,1027.53
2023-04-15T04:45:53.167Z,1027.51
2023-04-15T04:46:53.135Z,1027.48
2023-04-15T04:47:53.173Z,1027.50
2023-04-15T04:48:53.112Z,1027.51
2023-04-15T04:49:53.115Z,1027.51
2023-04-15T04:50:53.132Z,1027.53
2023-04-15T04:51:53.123Z,1027.57
2023-04-15T04:52:53.132Z,1027.52
2023-04-15T04:53:53.180Z,1027.51
2023-04-15T04:54:53.137Z,1027.52
2023-04-15T04:55:53.140Z,1027.50
2023-04-15T04:56:53.135Z,1027.53
2023-04-15T04:57:53.127Z,1027.54
2023-04-15T04:58:53.133Z,1027.51
2023-04-15T04:59:53.133Z,1027.52
2023-04-15T05:00:53.207Z,1027.52
2023-04-15T05:01:53.220Z,1027.55
2023-04-15T05:02:53.266Z,1027.54
2023-04-15T05:03:53.220Z,1027.56
2023-04-15T05:04:53.139Z,1027.55
2023-04-15T05:05:53.141Z,1027.55
2023-04-15T05:06:53.144Z,1027.58
2023-04-15T05:07:53.144Z,1027.52
2023-04-15T05:08:53.153Z,1027.55
2023-04-15T05:09:53.200Z,1027.50
2023-04-15T05:10:53.157Z,1027.56
2023-04-15T05:11:53.151Z,1027.55
2023-04-15T05:12:53.155Z,1027.53
2023-04-15T05:13:53.173Z,1027.57
2023-04-15T05:14:53.162Z,1027.52
2023-04-15T05:15:53.213Z,1027.50
2023-04-15T05:16:53.162Z,1027.53
2023-04-15T05:17:53.208Z,1027.49
2023-04-15T05:18:53.192Z,1027.52
2023-04-15T05:19:53.170Z,1027.54
2023-04-15T05:20:53.173Z,1027.50
2023-04-15T05:21:53.183Z,1027.49
2023-04-15T05:22:53.174Z,1027.51
2023-04-15T05:23:53.186Z,1027.51
2023-04-15T05:24:53.190Z,1027.47
2023-04-15T05:25:53.182Z,1027.48
2023-04-15T05:26:53.178Z,1027.49
2023-04-15T05:27:53.185Z,1027.49
2023-04-15T05:28:53.180Z,1027.52
2023-04-15T05:29:53.188Z,1027.52
2023-04-15T05:30:53.197Z,1027.54
2023-04-15T05:31:53.203Z,1027.55
2023-04-15T05:32:53.251Z,1027.55
2023-04-15T05:33:53.196Z,1027.56
2023-04-15T05:34:53.217Z,1027.60
2023-04-15T05:35:53.200Z,1027.58
2023-04-15T05:36:53.198Z,1027.61
2023-04-15T05:37:53.199Z,1027.57
2023-04-15T05:38:53.205Z,1027.56
2023-04-15T05:39:53.205Z,1027.57
2023-04-15T05:40:53.199Z,1027.56
2023-04-15T05:41:53.217Z,1027.54
2023-04-15T05:42:53.204Z,1027.51
2023-04-15T05:43:53.225Z,1027.53
2023-04-15T05:44:53.209Z,1027.55
2023-04-15T05:45:53.257Z,1027.51
2023-04-15T05:46:53.219Z,1027.54
2023-04-15T05:47:53.227Z,1027.51
2023-04-15T05:49:53.231Z,1027.53
2023-04-15T05:50:53.247Z,1027.57
2023-04-15T05:51:53.224Z,1027.50
2023-04-15T05:52:53.225Z,1027.49
2023-04-15T05:53:53.228Z,1027.58
2023-04-15T05:54:53.234Z,1027.59
2023-04-15T05:55:53.222Z,1027.49
2023-04-15T05:56:53.234Z,1027.56
2023-04-15T05:57:53.228Z,1027.54
2023-04-15T05:58:53.886Z,1027.57
2023-04-15T05:59:53.247Z,1027.54
2023-04-15T06:00:53.284Z,1027.59
2023-04-15T06:01:53.303Z,1027.53
2023-04-15T06:02:53.344Z,1027.55
2023-04-15T06:03:53.446Z,1027.55
2023-04-15T06:04:53.284Z,1027.60
2023-04-15T06:05:53.252Z,1027.52
2023-04-15T06:06:53.272Z,1027.57
2023-04-15T06:07:53.253Z,1027.53
2023-04-15T06:08:53.248Z,1027.53
2023-04-15T06:09:53.254Z,1027.57
2023-04-15T06:10:53.249Z,1027.54
2023-04-15T06:11:53.283Z,1027.58
2023-04-15T06:12:53.271Z,1027.56
2023-04-15T06:13:53.267Z,1027.56
2023-04-15T06:14:53.257Z,1027.55
2023-04-15T06:15:53.279Z,1027.56
2023-04-15T06:16:53.262Z,1027.55
2023-04-15T06:17:53.290Z,1027.59
2023-04-15T06:18:53.262Z,1027.58
2023-04-15T06:19:53.276Z,1027.59
2023-04-15T06:20:53.316Z,1027.59
2023-04-15T06:21:53.274Z,1027.58
2023-04-15T06:22:53.294Z,1027.60
2023-04-15T06:23:53.277Z,1027.54
2023-04-15T06:24:53.287Z,1027.58
2023-04-15T06:25:53.275Z,1027.59
2023-04-15T06:26:53.293Z,1027.57
2023-04-15T06:27:53.289Z,1027.57
2023-04-15T06:28:53.297Z,1027.59
2023-04-15T06:29:53.287Z,1027.59
2023-04-15T06:30:53.285Z,1027.63
2023-04-15T06:31:53.423Z,1027.61
2023-04-15T06:32:53.348Z,1027.58
2023-04-15T06:33:53.312Z,1027.61
2023-04-15T06:34:53.294Z,1027.55
2023-04-15T06:35:53.297Z,1027.60
2023-04-15T06:36:53.291Z,1027.62
2023-04-15T06:37:53.295Z,1027.61
2023-04-15T06:38:53.341Z,1027.63
2023-04-15T06:39:53.303Z,1027.68
2023-04-15T06:40:53.297Z,1027.63
2023-04-15T06:41:53.300Z,1027.60
2023-04-15T06:42:53.312Z,1027.65
2023-04-15T06:43:53.307Z,1027.63
2023-04-15T06:44:53.308Z,1027.68
2023-04-15T06:45:53.350Z,1027.60
2023-04-15T06:46:53.311Z,1027.63
2023-04-15T06:47:53.323Z,1027.65
2023-04-15T06:48:53.323Z,1027.67
2023-04-15T06:49:53.318Z,1027.68
2023-04-15T06:50:53.344Z,1027.67
2023-04-15T06:51:53.326Z,1027.75
2023-04-15T06:52:53.331Z,1027.75
2023-04-15T06:53:53.321Z,1027.68
2023-04-15T06:54:53.345Z,1027.72
2023-04-15T06:55:53.428Z,1027.69
2023-04-15T06:56:53.330Z,1027.66
2023-04-15T06:57:53.335Z,1027.70
2023-04-15T06:58:53.332Z,1027.70
2023-04-15T06:59:53.342Z,1027.68
2023-04-15T07:00:53.391Z,1027.71
2023-04-15T07:01:53.359Z,1027.67
2023-04-15T07:02:53.348Z,1027.72
2023-04-15T07:03:53.375Z,1027.69
2023-04-15T07:04:53.338Z,1027.68
2023-04-15T07:05:53.599Z,1027.75
2023-04-15T07:06:53.343Z,1027.71
2023-04-15T07:07:53.349Z,1027.78
2023-04-15T07:08:53.349Z,1027.74
2023-04-15T07:09:53.354Z,1027.70
2023-04-15T07:10:53.375Z,1027.73
2023-04-15T07:11:53.357Z,1027.76
2023-04-15T07:12:53.356Z,1027.73
2023-04-15T07:13:53.357Z,1027.69
2023-04-15T07:14:53.365Z,1027.72
2023-04-15T07:15:53.368Z,1027.77
2023-04-15T07:16:53.493Z,1027.69
2023-04-15T07:17:53.390Z,1027.70
2023-04-15T07:18:53.367Z,1027.68
2023-04-15T07:19:53.370Z,1027.73
2023-04-15T07:20:53.376Z,1027.73
2023-04-15T07:21:53.376Z,1027.69
2023-04-15T07:22:53.375Z,1027.73
2023-04-15T07:23:53.384Z,1027.76
2023-04-15T07:24:53.381Z,1027.76
2023-04-15T07:25:53.386Z,1027.81
2023-04-15T07:26:53.425Z,1027.77
2023-04-15T07:27:53.382Z,1027.78
2023-04-15T07:28:53.386Z,1027.80
2023-04-15T07:29:53.397Z,1027.79
2023-04-15T07:30:53.428Z,1027.81
2023-04-15T07:31:53.396Z,1027.80
2023-04-15T07:32:53.566Z,1027.86
2023-04-15T07:33:53.401Z,1027.80
2023-04-15T07:34:53.393Z,1027.92
2023-04-15T07:35:53.408Z,1027.86
2023-04-15T07:36:53.400Z,1027.93
2023-04-15T07:37:53.405Z,1027.90
2023-04-15T07:38:53.410Z,1027.85
2023-04-15T07:39:53.408Z,1027.87
2023-04-15T07:40:53.419Z,1027.89
2023-04-15T07:41:53.423Z,1027.93
2023-04-15T07:42:53.441Z,1027.92
2023-04-15T07:43:53.409Z,1027.93
2023-04-15T07:44:53.411Z,1027.88
2023-04-15T07:45:53.470Z,1027.88
2023-04-15T07:46:53.414Z,1027.95
2023-04-15T07:47:53.465Z,1027.87
2023-04-15T07:48:53.425Z,1027.93
2023-04-15T07:49:53.424Z,1027.88
2023-04-15T07:50:53.427Z,1027.97
2023-04-15T07:51:53.427Z,1027.92
2023-04-15T07:52:53.441Z,1027.95
2023-04-15T07:53:53.436Z,1027.93
2023-04-15T07:54:53.451Z,1028.00
2023-04-15T07:55:53.591Z,1028.01
2023-04-15T07:56:53.435Z,1027.97
2023-04-15T07:57:53.440Z,1028.02
2023-04-15T07:58:53.472Z,1027.94
2023-04-15T07:59:53.442Z,1028.01
2023-04-15T08:00:53.449Z,1028.01
2023-04-15T08:01:53.489Z,1028.02
2023-04-15T08:02:53.618Z,1028.02
2023-04-15T08:03:53.548Z,1028.07
2023-04-15T08:04:53.598Z,1027.95
2023-04-15T08:05:53.459Z,1027.97
2023-04-15T08:06:53.460Z,1027.99
2023-04-15T08:07:53.461Z,1028.01
2023-04-15T08:08:53.460Z,1028.05
2023-04-15T08:09:53.466Z,1028.04
2023-04-15T08:10:53.554Z,1028.03
2023-04-15T08:11:53.471Z,1027.99
2023-04-15T08:12:53.465Z,1028.03
2023-04-15T08:13:53.476Z,1028.07
2023-04-15T08:14:53.514Z,1028.05
2023-04-15T08:15:53.489Z,1028.01
2023-04-15T08:16:53.476Z,1028.02
2023-04-15T08:17:53.540Z,1028.11
2023-04-15T08:18:53.485Z,1028.07
2023-04-15T08:19:53.480Z,1028.03
2023-04-15T08:20:53.479Z,1028.13
2023-04-15T08:21:53.481Z,1028.19
2023-04-15T08:22:53.485Z,1028.14
2023-04-15T08:23:53.487Z,1028.11
2023-04-15T08:24:53.489Z,1028.14
2023-04-15T08:25:53.496Z,1028.13
2023-04-15T08:26:53.489Z,1028.12
2023-04-15T08:27:53.511Z,1028.09
2023-04-15T08:28:53.503Z,1028.11
2023-04-15T08:29:53.504Z,1028.14
2023-04-15T08:30:53.519Z,1028.13
2023-04-15T08:31:53.628Z,1028.14
2023-04-15T08:32:53.597Z,1028.19
2023-04-15T08:33:53.508Z,1028.23
2023-04-15T08:34:53.507Z,1028.13
2023-04-15T08:35:53.508Z,1028.12
2023-04-15T08:36:53.510Z,1028.17
2023-04-15T08:37:53.516Z,1028.17
2023-04-15T08:38:53.518Z,1028.13
2023-04-15T08:39:53.522Z,1028.12
2023-04-15T08:40:53.517Z,1028.17
2023-04-15T08:41:53.522Z,1028.12
2023-04-15T08:42:53.526Z,1028.12
2023-04-15T08:43:53.528Z,1028.11
2023-04-15T08:44:53.526Z,1028.11
2023-04-15T08:45:53.532Z,1028.12
2023-04-15T08:46:53.595Z,1028.11
2023-04-15T08:47:53.557Z,1028.15
2023-04-15T08:48:53.563Z,1028.10
2023-04-15T08:49:53.551Z,1028.14
2023-04-15T08:50:53.691Z,1028.11
2023-04-15T08:51:53.550Z,1028.12
2023-04-15T08:52:53.542Z,1028.14
2023-04-15T08:53:53.549Z,1028.09
2023-04-15T08:54:53.555Z,1028.14
2023-04-15T08:55:53.555Z,1028.05
2023-04-15T08:56:53.595Z,1028.15
2023-04-15T08:57:53.554Z,1028.19
2023-04-15T08:58:53.555Z,1028.16
2023-04-15T08:59:53.566Z,1028.15
2023-04-15T09:00:53.583Z,1028.14
2023-04-15T09:01:53.585Z,1028.16
2023-04-15T09:02:53.682Z,1028.20
2023-04-15T09:03:53.733Z,1028.17
2023-04-15T09:04:53.564Z,1028.16
2023-04-15T09:05:53.580Z,1028.15
2023-04-15T09:06:53.581Z,1028.16
2023-04-15T09:07:53.671Z,1028.14
2023-04-15T09:08:53.579Z,1028.17
2023-04-15T09:09:53.591Z,1028.12
2023-04-15T09:10:53.590Z,1028.19
2023-04-15T09:11:53.585Z,1028.16
2023-04-15T09:12:53.585Z,1028.17
2023-04-15T09:13:53.593Z,1028.22
2023-04-15T09:14:53.593Z,1028.18
2023-04-15T09:15:53.599Z,1028.14
2023-04-15T09:16:53.659Z,1028.09
2023-04-15T09:17:53.620Z,1028.06
2023-04-15T09:18:53.622Z,1028.10
2023-04-15T09:19:53.608Z,1028.15
2023-04-15T09:20:53.620Z,1028.08
2023-04-15T09:21:53.965Z,1028.15
2023-04-15T09:22:53.614Z,1028.12
2023-04-15T09:23:53.621Z,1028.11
2023-04-15T09:24:53.630Z,1028.13
2023-04-15T09:25:53.641Z,1028.13
2023-04-15T09:26:53.638Z,1028.15
2023-04-15T09:27:53.650Z,1028.17
2023-04-15T09:28:53.646Z,1028.14
2023-04-15T09:29:53.649Z,1028.12
2023-04-15T09:30:53.704Z,1028.20
2023-04-15T09:31:53.665Z,1028.13
2023-04-15T09:32:53.670Z,1028.15
2023-04-15T09:33:53.662Z,1028.16
2023-04-15T09:34:53.695Z,1028.19
2023-04-15T09:35:53.670Z,1028.24
2023-04-15T09:36:53.678Z,1028.17
2023-04-15T09:37:53.686Z,1028.16
2023-04-15T09:38:53.699Z,1028.16
2023-04-15T09:39:53.682Z,1028.17
2023-04-15T09:40:53.704Z,1028.17
2023-04-15T09:41:53.693Z,1028.17
2023-04-15T09:42:53.693Z,1028.17
2023-04-15T09:43:53.700Z,1028.17
2023-04-15T09:44:53.705Z,1028.24
2023-04-15T09:45:53.727Z,1028.26
2023-04-15T09:46:53.737Z,1028.17
2023-04-15T09:47:53.732Z,1028.19
2023-04-15T09:48:53.717Z,1028.30
2023-04-15T09:49:53.752Z,1028.20
2023-04-15T09:50:53.749Z,1028.23
2023-04-15T09:52:04.522Z,1028.16
2023-04-15T09:52:53.731Z,1028.22
2023-04-15T09:53:53.734Z,1028.13
2023-04-15T09:54:53.745Z,1028.21
2023-04-15T09:55:53.755Z,1028.18
2023-04-15T09:56:53.746Z,1028.20
2023-04-15T09:57:53.748Z,1028.20
2023-04-15T09:58:53.754Z,1028.18
2023-04-15T09:59:53.757Z,1028.17
2023-04-15T10:00:53.767Z,1028.10
2023-04-15T10:01:53.862Z,1028.17
2023-04-15T10:02:53.901Z,1028.15
2023-04-15T10:03:53.927Z,1028.08
2023-04-15T10:04:53.789Z,1028.15
2023-04-15T10:05:53.839Z,1028.15
2023-04-15T10:06:53.819Z,1028.14
2023-04-15T10:07:53.791Z,1028.13
2023-04-15T10:08:53.799Z,1028.09
2023-04-15T10:09:53.797Z,1028.18
2023-04-15T10:10:53.805Z,1028.14
2023-04-15T10:11:53.812Z,1028.14
2023-04-15T10:12:53.811Z,1028.10
2023-04-15T10:13:53.814Z,1028.07
2023-04-15T10:14:53.819Z,1028.13
2023-04-15T10:15:53.841Z,1028.21
2023-04-15T10:16:53.829Z,1028.15
2023-04-15T10:17:53.849Z,1028.11
2023-04-15T10:18:53.837Z,1028.08
2023-04-15T10:19:53.838Z,1028.20
2023-04-15T10:20:53.868Z,1028.11
2023-04-15T10:21:53.847Z,1028.12
2023-04-15T10:22:53.876Z,1028.20
2023-04-15T10:23:53.854Z,1028.16
2023-04-15T10:24:53.863Z,1028.15
2023-04-15T10:25:54.014Z,1028.10
2023-04-15T10:26:53.876Z,1028.15
2023-04-15T10:27:53.867Z,1028.17
2023-04-15T10:28:53.882Z,1028.17
2023-04-15T10:29:53.885Z,1028.15
2023-04-15T10:30:53.968Z,1028.16
2023-04-15T10:31:53.886Z,1028.25
2023-04-15T10:32:53.960Z,1028.24
2023-04-15T10:33:53.894Z,1028.17
2023-04-15T10:34:54.567Z,1028.19
2023-04-15T10:35:53.910Z,1028.23
2023-04-15T10:36:53.908Z,1028.24
2023-04-15T10:37:53.917Z,1028.16
2023-04-15T10:38:53.950Z,1028.18
2023-04-15T10:39:53.918Z,1028.24
2023-04-15T10:40:53.925Z,1028.18
2023-04-15T10:41:53.924Z,1028.20
2023-04-15T10:42:53.926Z,1028.19
2023-04-15T10:43:53.929Z,1028.28
2023-04-15T10:44:53.937Z,1028.22
2023-04-15T10:45:54.247Z,1028.22
2023-04-15T10:46:54.041Z,1028.25
2023-04-15T10:47:53.973Z,1028.23
2023-04-15T10:48:53.954Z,1028.20
2023-04-15T10:49:53.948Z,1028.31
2023-04-15T10:50:53.960Z,1028.26
2023-04-15T10:51:53.974Z,1028.21
2023-04-15T10:52:53.963Z,1028.24
2023-04-15T10:53:53.985Z,1028.20
2023-04-15T10:54:54.100Z,1028.17
2023-04-15T10:55:53.972Z,1028.19
2023-04-15T10:56:53.978Z,1028.16
2023-04-15T10:57:53.985Z,1028.16
2023-04-15T10:58:53.984Z,1028.18
2023-04-15T10:59:53.987Z,1028.19
2023-04-15T11:00:53.997Z,1028.17
2023-04-15T11:01:54.242Z,1028.26
2023-04-15T11:02:54.099Z,1028.23
2023-04-15T11:03:54.155Z,1028.15
2023-04-15T11:04:54.147Z,1028.16
2023-04-15T11:05:54.030Z,1028.13
2023-04-15T11:06:54.015Z,1028.15
2023-04-15T11:07:54.024Z,1028.10
2023-04-15T11:08:54.032Z,1028.13
2023-04-15T11:09:54.019Z,1028.18
2023-04-15T11:10:54.130Z,1028.07
2023-04-15T11:11:54.032Z,1028.12
2023-04-15T11:12:54.031Z,1028.13
2023-04-15T11:13:54.054Z,1028.09
2023-04-15T11:14:54.043Z,1028.09
2023-04-15T11:15:54.070Z,1028.05
2023-04-15T11:16:54.044Z,1028.11
2023-04-15T11:17:54.158Z,1028.02
2023-04-15T11:18:54.057Z,1028.09
2023-04-15T11:19:54.068Z,1028.13
2023-04-15T11:20:54.066Z,1028.09
2023-04-15T11:21:54.053Z,1028.14
2023-04-15T11:23:08.169Z,1028.05
2023-04-15T11:23:54.065Z,1028.06
2023-04-15T11:24:54.070Z,1028.02
2023-04-15T11:25:54.071Z,1028.08
2023-04-15T11:26:54.098Z,1028.07
2023-04-15T11:27:54.094Z,1028.05
2023-04-15T11:28:54.083Z,1028.12
2023-04-15T11:29:54.093Z,1028.09
2023-04-15T11:30:54.093Z,1028.04
2023-04-15T11:31:54.126Z,1028.06
2023-04-15T11:32:54.138Z,1027.97
2023-04-15T11:33:54.118Z,1028.03
2023-04-15T11:34:54.103Z,1028.11
2023-04-15T11:35:54.125Z,1028.01
2023-04-15T11:36:54.105Z,1028.11
2023-04-15T11:37:54.109Z,1028.12
2023-04-15T11:38:54.122Z,1028.05
2023-04-15T11:39:54.120Z,1028.02
2023-04-15T11:40:54.120Z,1028.06
2023-04-15T11:41:54.140Z,1028.02
2023-04-15T11:42:54.150Z,1028.06
2023-04-15T11:43:54.144Z,1028.02
2023-04-15T11:44:54.136Z,1028.04
2023-04-15T11:45:54.208Z,1028.08
2023-04-15T11:46:54.146Z,1028.03
2023-04-15T11:47:54.190Z,1028.01
2023-04-15T11:48:54.157Z,1028.04
2023-04-15T11:49:54.152Z,1027.97
2023-04-15T11:50:54.183Z,1028.07
2023-04-15T11:51:54.219Z,1028.06
2023-04-15T11:52:54.173Z,1028.00
2023-04-15T11:53:54.165Z,1028.07
2023-04-15T11:54:54.177Z,1028.07
2023-04-15T11:55:54.174Z,1028.05
2023-04-15T11:56:54.184Z,1028.04
2023-04-15T11:57:54.175Z,1028.06
2023-04-15T11:58:54.212Z,1028.07
2023-04-15T11:59:54.187Z,1028.06
2023-04-15T12:00:54.198Z,1028.07
2023-04-15T12:01:54.266Z,1028.06
2023-04-15T12:02:54.273Z,1028.03
2023-04-15T12:03:54.327Z,1028.03
2023-04-15T12:04:54.292Z,1028.05
2023-04-15T12:05:54.209Z,1028.04
2023-04-15T12:06:54.219Z,1028.00